INFORMACIÓN METAR y TAF
METAR FOR CYSF
ADDS - METARS form results

(1020 UTC 25 April 2019)
Data provider http://aviationweather.gov/metar/data/
 
METAR text: CYSF 251000Z AUTO 08008KT 9SM -SN BKN036 OVC042 M05/M06 A2993 RMK SLP152
Conditions at: CYSF (STONY RAPIDS ARP, SK, CA) observed 1000 UTC 25 April 2019
Temperature: -5.0°C (23°F)
Dewpoint: -6.0°C (21°F) [RH = 93%]
Pressure (altimeter): 29.93 inches Hg (1013.6 mb)
[Sea-level pressure: 1015.2 mb]
Winds: from the E (80 degrees) at 9 MPH (8 knots; 4.1 m/s)
Visibility: 9 miles (14 km)
Ceiling: 3600 feet AGL
Clouds: broken clouds at 3600 feet AGL
overcast cloud deck at 4200 feet AGL
Weather: -SN  (light snow)

METAR text: CYSF 250941Z AUTO 08007KT 7SM -SN FEW013 OVC034 M05/M07 A2993 RMK SLP152
Conditions at: CYSF (STONY RAPIDS ARP, SK, CA) observed 0941 UTC 25 April 2019
Temperature: -5.0°C (23°F)
Dewpoint: -7.0°C (19°F) [RH = 86%]
Pressure (altimeter): 29.93 inches Hg (1013.6 mb)
[Sea-level pressure: 1015.2 mb]
Winds: from the E (80 degrees) at 8 MPH (7 knots; 3.6 m/s)
Visibility: 7 miles (11 km)
Ceiling: 3400 feet AGL
Clouds: few clouds at 1300 feet AGL
overcast cloud deck at 3400 feet AGL
Weather: -SN  (light snow)

METAR text: CYSF 250933Z AUTO 08009KT 5SM -SN FEW013 OVC034 M05/M07 A2992 RMK SLP151
Conditions at: CYSF (STONY RAPIDS ARP, SK, CA) observed 0933 UTC 25 April 2019
Temperature: -5.0°C (23°F)
Dewpoint: -7.0°C (19°F) [RH = 86%]
Pressure (altimeter): 29.92 inches Hg (1013.3 mb)
[Sea-level pressure: 1015.1 mb]
Winds: from the E (80 degrees) at 10 MPH (9 knots; 4.6 m/s)
Visibility: 5 miles ( 8 km)
Ceiling: 3400 feet AGL
Clouds: few clouds at 1300 feet AGL
overcast cloud deck at 3400 feet AGL
Weather: -SN  (light snow)

METAR text: CYSF 250922Z AUTO 07009KT 9SM -SN SCT013 OVC034 M05/M06 A2992 RMK SLP150
Conditions at: CYSF (STONY RAPIDS ARP, SK, CA) observed 0922 UTC 25 April 2019
Temperature: -5.0°C (23°F)
Dewpoint: -6.0°C (21°F) [RH = 93%]
Pressure (altimeter): 29.92 inches Hg (1013.3 mb)
[Sea-level pressure: 1015.0 mb]
Winds: from the ENE (70 degrees) at 10 MPH (9 knots; 4.6 m/s)
Visibility: 9 miles (14 km)
Ceiling: 3400 feet AGL
Clouds: scattered clouds at 1300 feet AGL
overcast cloud deck at 3400 feet AGL
Weather: -SN  (light snow)

Forecast for: AMD
Text: TAF AMD CYSF 250727Z 2507/2518 07007KT P6SM -SN SCT009 OVC040
Forecast period: 0700 to 1000 UTC 25 April 2019
Forecast type: FROM: standard forecast or significant change
Winds: from the ENE (70 degrees) at 8 MPH (7 knots; 3.6 m/s)
Visibility: 6 or more miles 10+ km)
Ceiling: 4000 feet AGL
Clouds: scattered clouds at 900 feet AGL
overcast cloud deck at 4000 feet AGL
Weather: -SN  (light snow)
Text: TEMPO 2507/2510 3SM -SN OVC009
Forecast period: 0700 to 1000 UTC 25 April 2019
Forecast type: TEMPORARY: The following changes expected for less than half the time period
Visibility: 3 miles (5 km)
Ceiling: 900 feet AGL
Clouds: overcast cloud deck at 900 feet AGL
Weather: -SN  (light snow)
Text: PROB30 2507/2510 11/2SM -SN OVC008
Forecast period: 0700 to 1000 UTC 25 April 2019
Forecast type: PROBABLE: 30 percent likelihood of the following during this time
Visibility: 1.50 miles (2.41 km)
Ceiling: 800 feet AGL
Clouds: overcast cloud deck at 800 feet AGL
Weather: -SN  (light snow)
Text: FM251000 08008KT P6SM SCT009 OVC040
Forecast period: 1000 to 1800 UTC 25 April 2019
Forecast type: FROM: standard forecast or significant change
Winds: from the E (80 degrees) at 9 MPH (8 knots; 4.1 m/s)
Visibility: 6 or more miles 10+ km)
Ceiling: 4000 feet AGL
Clouds: scattered clouds at 900 feet AGL
overcast cloud deck at 4000 feet AGL
Weather: no significant weather forecast for this period
Text: TEMPO 2510/2518 4SM -SN SCT009 OVC020 RMK FCST BASED ON AUTO OBS. NXT FCST BY 251200Z
Forecast period: 1000 to 1800 UTC 25 April 2019
Forecast type: TEMPORARY: The following changes expected for less than half the time period
Visibility: 4 miles (6 km)
Ceiling: 2000 feet AGL
Clouds: scattered clouds at 900 feet AGL
overcast cloud deck at 2000 feet AGL
Weather: -SN  (light snow)

 MAPA DE AEROPUERTO

 INFORMACIÓN DE PISTA
Pista 06 Longitud 5050 ft Ancho 100 ft
Elevación 805 ft Umbral desplazado 0 ft Rumbo de pista 0
Pista 24 Longitud 5050 ft Ancho 100 ft
Elevación 805 ft Umbral desplazado 0 ft Rumbo de pista 0

 FRECUANCIAS DEL AEROPUERTO

 RADIO AYUDAS DEL AEROPUERTO
Tipo NDB Nombre Stony Rapids Frecuencia 287 KHZ



              


PayPal

©2019 Oasis Virtual Airlines
Simulando desde el 2013

Oasis Líneas Aéreas Virtuales no está relacionada con ninguna compañía real.
Se trata de un entorno virtual de simulación aérea, sin ánimo de lucro.


Visitas: 36302

VAM v2.6.2 [MOD.]